Alpena, MI

7:58 AM EST on January 30, 2015 (GMT -0500)
Oscoda-Wurtsmith | Change Station
CLOSE
Current Station
Airport
Location: Oscoda,
Elevation: 633 ft
Nearby Weather Stations

Elev 633 ft 44.45 °N, 83.39 °W | Updated 5 minutes ago

Overcast
Overcast
7 °F
Feels Like -10 °F
N
15
Wind Variable Wind from NNW
Gusts 21 mph

Today
High -- | Low -- °F
--% Chance of Precip.
Yesterday
High -- | Low -- °F
Precip. -- in
7:56 AM 5:38 PM
Waxing Gibbous, 82% visible
Pressure 30.38 in
Visibility 5.0 miles
Clouds Scattered Clouds 1400 ft
Mostly Cloudy 2100 ft
Windchill -10 °F
Dew Point 1 °F
Humidity 75%
Rainfall 0.00 in
Snow Depth Not available.
UV 0 out of 12
Pollen .10 out of 12
Air Quality Not available.
Flu Activity Not available.
METAR KOSC 301253Z AUTO 34013G18KT 5SM HZ SCT014 BKN021 M13/M17 A3038 RMK AO2 T11371172

More Conditions Fewer Conditions

Pressure 30.38 in
Visibility 5.0 miles
Clouds Scattered Clouds 1400 ft
Mostly Cloudy 2100 ft
Windchill -10 °F
Dew Point 1 °F
Humidity 75%
Rainfall 0.00 in
Snow Depth Not available.
UV 0 out of 12
Pollen .10 out of 12
Air Quality Not available.
Flu Activity Not available.
METAR KOSC 301253Z AUTO 34013G18KT 5SM HZ SCT014 BKN021 M13/M17 A3038 RMK AO2 T11371172

More Conditions Fewer Conditions

Nowcast | as of 7:00 am EST on January 30, 2015

At 8 am...partly cloudy. Isolated snow showers. Temperature 6 above. Northwest winds 13 mph. Wind chill 12 below. At 10 am...partly cloudy. Temperature 7 above. Northwest winds 13 mph. Wind chill 9 below. At 12 PM...partly cloudy. Temperature 9 above. Northwest winds 11 mph. Wind chill 7 below. At 2 PM...mostly clear. Chance of flurries. Temperature 10 above. Northwest winds 11 mph. Wind chill 6 below.

×

10-Day Weather Forecast

Almanac

Astronomy

Jan. 30, 2015 Rise Set
Actual Time
Civil Twilight
Nautical Twilight
Astronomical Twilight
Moon
Length of Visible Light
Length of Day
Tomorrow will be .
, % of the Moon is Illuminated

Today's Extremes

State Highs State Lows

Community

WunderPhotos

Upload Photos

1,791,740 photos uploaded!

WunderBlogs® & News

Nearby

Air Quality

  Air Quality AQ Index Pollutant
Not available.

Snow Depth

Station Depth Elevation

Earthquake Activity

City Distance Mag. Time & Date
Minimum magnitude displayed is 2.5.

Coastal Water Temperatures

Place Temperature

Nearby Weather Stations